Time;durP1;ratioP1;P1;durP2;ratioP2;P2;SDS_P1;SDS_P2;PMS_P1;PMS_P2;Temp;Humidity;BMP_temperature;BMP_pressure;BME280_temperature;BME280_humidity;BME280_pressure;Samples;Min_cycle;Max_cycle;Signal;HPM_P1;HPM_P2
2023/09/08 00:00:09;;;;;;;0.38;0.38;;;;;;;;;;1037112;28;20037;-75
2023/09/08 00:00:39;;;;;;;0.30;0.28;;;;;;;;;;1038191;28;20032;-75
2023/09/08 00:01:09;;;;;;;1.48;1.27;;;;;;;;;;1041848;28;20461;-76
2023/09/08 00:01:40;;;;;;;1.30;1.25;;;;;;;;;;1041253;28;20037;-75
2023/09/08 00:02:10;;;;;;;5.40;2.65;;;;;;;;;;1041099;28;20024;-76
2023/09/08 00:02:41;;;;;;;5.03;0.85;;;;;;;;;;1042400;28;20033;-76
2023/09/08 00:03:11;;;;;;;0.20;0.20;;;;;;;;;;1042356;28;20025;-75
2023/09/08 00:03:42;;;;;;;1.45;1.35;;;;;;;;;;1041295;28;20079;-75
2023/09/08 00:04:12;;;;;;;0.25;0.25;;;;;;;;;;1042483;28;20163;-76
2023/09/08 00:04:43;;;;;;;0.30;0.30;;;;;;;;;;1041857;28;20025;-76
2023/09/08 00:05:13;;;;;;;0.45;0.45;;;;;;;;;;1041901;28;20025;-76
2023/09/08 00:05:44;;;;;;;0.20;0.20;;;;;;;;;;1042152;28;20033;-75
2023/09/08 00:06:14;;;;;;;1.17;1.08;;;;;;;;;;1042521;28;20024;-76
2023/09/08 00:06:45;;;;;;;0.45;0.45;;;;;;;;;;1042258;28;20029;-76
2023/09/08 00:07:16;;;;;;;4.03;0.35;;;;;;;;;;1041264;28;20035;-76
2023/09/08 00:07:46;;;;;;;0.85;0.65;;;;;;;;;;1041105;28;20020;-76
2023/09/08 00:08:17;;;;;;;5.63;0.73;;;;;;;;;;1041662;28;20036;-75
2023/09/08 00:08:47;;;;;;;0.70;0.70;;;;;;;;;;1041957;28;20017;-76
2023/09/08 00:09:18;;;;;;;1.42;1.38;;;;;;;;;;1037493;28;20075;-75
2023/09/08 00:09:48;;;;;;;0.30;0.17;;;;;;;;;;1037495;28;20026;-76
2023/09/08 00:10:18;;;;;;;0.75;0.75;;;;;;;;;;1037902;28;20026;-75
2023/09/08 00:10:49;;;;;;;0.32;0.32;;;;;;;;;;1038081;28;20119;-75
2023/09/08 00:11:19;;;;;;;1.85;0.90;;;;;;;;;;1042530;28;20024;-76
2023/09/08 00:11:50;;;;;;;1.38;1.27;;;;;;;;;;1041628;28;20021;-74
2023/09/08 00:12:21;;;;;;;1.63;0.50;;;;;;;;;;1041555;28;20583;-75
2023/09/08 00:12:51;;;;;;;3.65;2.60;;;;;;;;;;1037449;28;20041;-76
2023/09/08 00:13:21;;;;;;;0.70;0.63;;;;;;;;;;1036754;28;20029;-76
2023/09/08 00:13:52;;;;;;;1.02;0.70;;;;;;;;;;1036963;28;20030;-75
2023/09/08 00:14:22;;;;;;;0.95;0.95;;;;;;;;;;1037184;28;20018;-76
2023/09/08 00:14:53;;;;;;;1.45;1.20;;;;;;;;;;1042106;28;20106;-75
2023/09/08 00:15:23;;;;;;;0.22;0.22;;;;;;;;;;1041225;28;20021;-76
2023/09/08 00:15:54;;;;;;;0.80;0.65;;;;;;;;;;1042087;28;20028;-76
2023/09/08 00:16:24;;;;;;;1.55;1.45;;;;;;;;;;1041826;28;20051;-76
2023/09/08 00:16:54;;;;;;;0.10;0.10;;;;;;;;;;1041960;28;20025;-75
2023/09/08 00:17:25;;;;;;;0.05;0.05;;;;;;;;;;1042160;28;20694;-76
2023/09/08 00:17:56;;;;;;;1.08;0.90;;;;;;;;;;1042460;28;20031;-76
2023/09/08 00:18:27;;;;;;;1.23;0.77;;;;;;;;;;1042238;28;20029;-76
2023/09/08 00:19:00;;;;;;;1.65;1.23;;;;;;;;;;1042071;28;20056;-75
2023/09/08 00:19:31;;;;;;;2.75;2.25;;;;;;;;;;1042266;28;20031;-75
2023/09/08 00:20:04;;;;;;;1.05;0.95;;;;;;;;;;1041369;28;20021;-75
2023/09/08 00:20:35;;;;;;;0.52;0.52;;;;;;;;;;1041027;28;20036;-76
2023/09/08 00:21:06;;;;;;;1.60;0.85;;;;;;;;;;1041545;28;20021;-75
2023/09/08 00:21:37;;;;;;;0.98;0.98;;;;;;;;;;1041875;28;20446;-74
2023/09/08 00:22:07;;;;;;;7.38;0.95;;;;;;;;;;1041419;28;20025;-75
2023/09/08 00:22:38;;;;;;;0.20;0.20;;;;;;;;;;1037356;28;20077;-74
2023/09/08 00:23:08;;;;;;;0.30;0.30;;;;;;;;;;1037732;28;20034;-75
2023/09/08 00:23:39;;;;;;;0.65;0.60;;;;;;;;;;1037894;28;20444;-75
2023/09/08 00:24:10;;;;;;;1.30;1.20;;;;;;;;;;1037663;28;20040;-75
2023/09/08 00:24:40;;;;;;;0.13;0.13;;;;;;;;;;1042159;28;20075;-76
2023/09/08 00:25:11;;;;;;;2.15;1.02;;;;;;;;;;1037259;28;20167;-76
2023/09/08 00:25:41;;;;;;;0.13;0.13;;;;;;;;;;1032877;28;20108;-74
2023/09/08 00:26:12;;;;;;;1.02;0.98;;;;;;;;;;1033185;28;20019;-75
2023/09/08 00:26:42;;;;;;;0.52;0.40;;;;;;;;;;1029621;28;20026;-75
2023/09/08 00:27:13;;;;;;;3.20;2.58;;;;;;;;;;1033461;28;20033;-76
2023/09/08 00:27:43;;;;;;;2.10;1.77;;;;;;;;;;1033296;28;20030;-76
2023/09/08 00:28:13;;;;;;;3.00;1.60;;;;;;;;;;1033440;28;20025;-75
2023/09/08 00:28:44;;;;;;;1.52;1.42;;;;;;;;;;1037740;28;20029;-75
2023/09/08 00:29:14;;;;;;;1.08;1.05;;;;;;;;;;1037623;28;20030;-75
2023/09/08 00:29:45;;;;;;;0.55;0.22;;;;;;;;;;1042399;28;20026;-75
2023/09/08 00:30:15;;;;;;;0.80;0.80;;;;;;;;;;1042160;28;20017;-75
2023/09/08 00:30:46;;;;;;;2.20;1.33;;;;;;;;;;1042222;28;20025;-75
2023/09/08 00:31:16;;;;;;;1.10;1.00;;;;;;;;;;1041655;28;20574;-75
2023/09/08 00:31:46;;;;;;;0.10;0.10;;;;;;;;;;1041284;28;20099;-75
2023/09/08 00:32:17;;;;;;;0.77;0.77;;;;;;;;;;1041280;28;20068;-76
2023/09/08 00:32:47;;;;;;;0.73;0.73;;;;;;;;;;1041692;28;20029;-76
2023/09/08 00:33:19;;;;;;;1.65;1.55;;;;;;;;;;1042018;28;20017;-76
2023/09/08 00:33:49;;;;;;;0.20;0.20;;;;;;;;;;1041289;28;20027;-76
2023/09/08 00:34:19;;;;;;;1.95;0.90;;;;;;;;;;1041713;28;20021;-76
2023/09/08 00:34:50;;;;;;;0.08;0.08;;;;;;;;;;1042992;28;20033;-76
2023/09/08 00:35:21;;;;;;;1.40;1.30;;;;;;;;;;1041945;28;20388;-76
2023/09/08 00:35:53;;;;;;;0.10;0.10;;;;;;;;;;1040878;28;20053;-75
2023/09/08 00:36:23;;;;;;;0.95;0.95;;;;;;;;;;1041556;28;20477;-76
2023/09/08 00:36:54;;;;;;;0.38;0.38;;;;;;;;;;1041963;28;20026;-75
2023/09/08 00:37:24;;;;;;;5.05;2.85;;;;;;;;;;1041735;28;20029;-75
2023/09/08 00:37:55;;;;;;;1.42;1.33;;;;;;;;;;1040737;28;20021;-76
2023/09/08 00:38:25;;;;;;;0.20;0.20;;;;;;;;;;1040680;28;20116;-75
2023/09/08 00:38:56;;;;;;;0.00;0.00;;;;;;;;;;1041962;28;20025;-75
2023/09/08 00:39:26;;;;;;;0.45;0.45;;;;;;;;;;1041912;28;20104;-75
2023/09/08 00:39:57;;;;;;;1.45;0.85;;;;;;;;;;1038336;28;20078;-76
2023/09/08 00:40:27;;;;;;;1.25;1.15;;;;;;;;;;1037577;28;20031;-75
2023/09/08 00:41:00;;;;;;;0.55;0.50;;;;;;;;;;1036991;28;20029;-76
2023/09/08 00:41:31;;;;;;;0.28;0.28;;;;;;;;;;1037926;28;20097;-75
2023/09/08 00:42:01;;;;;;;2.10;1.35;;;;;;;;;;1037827;28;20105;-75
2023/09/08 00:42:31;;;;;;;3.05;1.00;;;;;;;;;;1037740;28;20025;-73
2023/09/08 00:43:02;;;;;;;4.32;1.70;;;;;;;;;;1038263;28;20136;-72
2023/09/08 00:43:33;;;;;;;3.08;2.35;;;;;;;;;;1038017;28;20025;-72
2023/09/08 00:44:04;;;;;;;17.80;5.53;;;;;;;;;;1036745;28;20027;-75
2023/09/08 00:44:34;;;;;;;2.03;1.45;;;;;;;;;;1041021;28;20036;-75
2023/09/08 00:45:06;;;;;;;0.00;0.00;;;;;;;;;;1041329;28;20053;-75
2023/09/08 00:45:40;;;;;;;1.08;0.75;;;;;;;;;;1041686;28;20033;-72
2023/09/08 00:46:10;;;;;;;1.27;1.20;;;;;;;;;;1040789;28;20029;-73
2023/09/08 00:46:41;;;;;;;3.70;0.57;;;;;;;;;;1041586;28;20037;-75
2023/09/08 00:47:11;;;;;;;4.38;0.55;;;;;;;;;;1041766;28;20030;-75
2023/09/08 00:47:42;;;;;;;0.73;0.73;;;;;;;;;;1042916;28;20423;-75
2023/09/08 00:48:12;;;;;;;0.93;0.93;;;;;;;;;;1041702;28;20048;-76
2023/09/08 00:48:43;;;;;;;2.95;1.55;;;;;;;;;;1037310;28;20061;-75
2023/09/08 00:49:14;;;;;;;3.33;1.10;;;;;;;;;;1037423;28;20025;-75
2023/09/08 00:49:45;;;;;;;2.75;1.00;;;;;;;;;;1037282;28;20026;-75
2023/09/08 00:50:16;;;;;;;0.98;0.95;;;;;;;;;;1037588;28;20096;-75
2023/09/08 00:50:46;;;;;;;0.77;0.77;;;;;;;;;;1037661;28;20228;-75
2023/09/08 00:51:17;;;;;;;0.68;0.68;;;;;;;;;;1038194;28;20382;-75
2023/09/08 00:51:47;;;;;;;18.52;1.40;;;;;;;;;;1042238;28;20017;-75
2023/09/08 00:52:18;;;;;;;0.75;0.75;;;;;;;;;;1042030;28;20062;-75
2023/09/08 00:52:49;;;;;;;0.52;0.52;;;;;;;;;;1041098;28;20098;-75
2023/09/08 00:53:19;;;;;;;0.63;0.63;;;;;;;;;;1041326;28;20406;-75
2023/09/08 00:53:50;;;;;;;2.50;1.35;;;;;;;;;;1041760;28;20527;-75
2023/09/08 00:54:20;;;;;;;1.45;1.35;;;;;;;;;;1042882;28;20032;-75
2023/09/08 00:54:50;;;;;;;0.20;0.20;;;;;;;;;;1041717;28;20078;-75
2023/09/08 00:55:21;;;;;;;0.20;0.20;;;;;;;;;;1039684;28;20017;-75
2023/09/08 00:55:52;;;;;;;1.52;1.15;;;;;;;;;;1040045;28;20023;-75
2023/09/08 00:56:23;;;;;;;0.15;0.15;;;;;;;;;;1037071;28;20051;-75
2023/09/08 00:56:55;;;;;;;0.98;0.80;;;;;;;;;;1035866;28;20135;-75
2023/09/08 00:57:26;;;;;;;0.50;0.50;;;;;;;;;;1037380;28;20558;-75
2023/09/08 00:57:58;;;;;;;3.15;1.35;;;;;;;;;;1036617;28;20038;-75
2023/09/08 00:58:29;;;;;;;1.55;0.93;;;;;;;;;;1041528;28;20021;-75
2023/09/08 00:58:59;;;;;;;2.80;1.55;;;;;;;;;;1041736;28;20025;-75
2023/09/08 00:59:32;;;;;;;3.70;2.72;;;;;;;;;;1040799;28;20029;-75
2023/09/08 01:00:05;;;;;;;4.82;2.78;;;;;;;;;;1039997;28;20029;-75
2023/09/08 01:00:36;;;;;;;9.15;3.78;;;;;;;;;;1040999;28;20516;-75
2023/09/08 01:01:06;;;;;;;12.85;6.38;;;;;;;;;;1039881;28;20033;-75
2023/09/08 01:01:37;;;;;;;27.13;8.05;;;;;;;;;;1040236;28;20035;-75
2023/09/08 01:02:07;;;;;;;23.60;8.45;;;;;;;;;;1040916;28;20091;-75
2023/09/08 01:02:37;;;;;;;9.20;4.10;;;;;;;;;;1040508;28;20025;-75
2023/09/08 01:03:08;;;;;;;1.45;1.35;;;;;;;;;;1042278;28;20033;-75
2023/09/08 01:03:39;;;;;;;1.08;0.98;;;;;;;;;;1040679;28;20021;-75
2023/09/08 01:04:09;;;;;;;1.73;1.08;;;;;;;;;;1041752;28;20116;-75
2023/09/08 01:04:41;;;;;;;2.53;1.30;;;;;;;;;;1042324;28;20466;-75
2023/09/08 01:05:14;;;;;;;2.33;2.13;;;;;;;;;;1041022;28;20027;-75
2023/09/08 01:05:46;;;;;;;2.20;1.77;;;;;;;;;;1042147;28;20032;-75
2023/09/08 01:06:17;;;;;;;1.27;1.17;;;;;;;;;;1039108;28;20113;-76
2023/09/08 01:06:48;;;;;;;3.92;1.65;;;;;;;;;;1033113;28;20489;-75
2023/09/08 01:07:19;;;;;;;4.75;2.30;;;;;;;;;;1034785;28;20591;-75
2023/09/08 01:07:50;;;;;;;3.00;2.47;;;;;;;;;;1033559;28;20033;-75
2023/09/08 01:08:21;;;;;;;2.13;1.55;;;;;;;;;;1036873;28;20022;-75
2023/09/08 01:08:52;;;;;;;0.57;0.38;;;;;;;;;;1038483;28;20091;-75
2023/09/08 01:09:24;;;;;;;1.38;0.98;;;;;;;;;;1036709;28;20133;-75
2023/09/08 01:09:54;;;;;;;4.30;1.48;;;;;;;;;;1038383;28;20025;-75
2023/09/08 01:10:25;;;;;;;1.65;1.55;;;;;;;;;;1036730;28;20022;-75
2023/09/08 01:10:56;;;;;;;0.40;0.40;;;;;;;;;;1040875;28;20515;-75
2023/09/08 01:11:26;;;;;;;5.30;2.33;;;;;;;;;;1041616;28;20017;-74
2023/09/08 01:12:00;;;;;;;3.38;2.45;;;;;;;;;;1039633;28;20024;-75
2023/09/08 01:12:31;;;;;;;5.05;2.05;;;;;;;;;;1038715;28;20603;-75
2023/09/08 01:13:01;;;;;;;3.33;1.27;;;;;;;;;;1041618;28;20025;-75
2023/09/08 01:13:32;;;;;;;7.03;2.35;;;;;;;;;;1041909;28;20078;-75
2023/09/08 01:14:02;;;;;;;4.22;2.38;;;;;;;;;;1041656;28;20025;-72
2023/09/08 01:14:32;;;;;;;0.70;0.70;;;;;;;;;;1041442;28;20029;-75
2023/09/08 01:15:06;;;;;;;4.20;2.75;;;;;;;;;;1040939;28;20127;-74
2023/09/08 01:15:38;;;;;;;32.97;2.72;;;;;;;;;;1042078;28;20024;-75
2023/09/08 01:16:08;;;;;;;2.88;1.38;;;;;;;;;;1040994;28;20858;-75
2023/09/08 01:16:40;;;;;;;2.85;2.63;;;;;;;;;;1035227;28;20038;-75
2023/09/08 01:17:12;;;;;;;0.82;0.82;;;;;;;;;;1035523;28;20407;-75
2023/09/08 01:17:42;;;;;;;2.88;1.63;;;;;;;;;;1034964;28;20021;-75
2023/09/08 01:18:13;;;;;;;1.27;1.20;;;;;;;;;;1035946;28;20034;-75
2023/09/08 01:18:43;;;;;;;1.35;1.25;;;;;;;;;;1040764;28;20068;-75
2023/09/08 01:19:15;;;;;;;0.70;0.70;;;;;;;;;;1041518;28;20361;-75
2023/09/08 01:19:47;;;;;;;1.70;1.42;;;;;;;;;;1037734;28;20025;-75
2023/09/08 01:20:21;;;;;;;1.00;0.68;;;;;;;;;;1038709;28;20022;-75
2023/09/08 01:20:51;;;;;;;0.95;0.95;;;;;;;;;;1039376;28;20025;-75
2023/09/08 01:21:40;;;;;;;0.82;0.82;;;;;;;;;;1041436;28;20021;-75
2023/09/08 01:22:40;;;;;;;2.00;1.45;;;;;;;;;;1038789;28;20136;-75
2023/09/08 01:23:21;;;;;;;1.25;1.10;;;;;;;;;;1028616;28;20151;-75
2023/09/08 01:23:59;;;;;;;2.97;1.35;;;;;;;;;;1037556;28;20037;-74
2023/09/08 01:24:48;;;;;;;2.10;1.85;;;;;;;;;;1037575;28;20030;-74
2023/09/08 01:25:21;;;;;;;0.82;0.82;;;;;;;;;;1035347;28;20027;-74
2023/09/08 01:25:51;;;;;;;1.48;1.38;;;;;;;;;;1036604;28;20040;-74
2023/09/08 01:26:24;;;;;;;4.18;1.58;;;;;;;;;;1032864;28;20112;-74
2023/09/08 01:26:54;;;;;;;3.83;1.75;;;;;;;;;;1034914;28;20517;-74
2023/09/08 01:27:25;;;;;;;5.28;1.38;;;;;;;;;;1034430;28;20034;-74
2023/09/08 01:27:58;;;;;;;0.32;0.25;;;;;;;;;;1037327;28;20032;-73
2023/09/08 01:28:29;;;;;;;1.98;1.65;;;;;;;;;;1036451;28;20441;-74
2023/09/08 01:29:01;;;;;;;1.38;1.08;;;;;;;;;;1032915;28;20026;-74
2023/09/08 01:29:32;;;;;;;6.88;2.95;;;;;;;;;;1037172;28;20038;-74
2023/09/08 01:30:04;;;;;;;3.85;1.10;;;;;;;;;;1035806;28;20017;-75
2023/09/08 01:30:35;;;;;;;0.30;0.30;;;;;;;;;;1035014;28;20100;-75
2023/09/08 01:31:05;;;;;;;1.63;1.52;;;;;;;;;;1041137;28;20033;-75
2023/09/08 01:31:37;;;;;;;0.30;0.30;;;;;;;;;;1039528;28;20029;-75
2023/09/08 01:32:08;;;;;;;0.75;0.75;;;;;;;;;;1037536;28;20684;-74
2023/09/08 01:32:40;;;;;;;1.52;1.13;;;;;;;;;;1035752;28;20021;-73
2023/09/08 01:33:11;;;;;;;3.33;1.95;;;;;;;;;;1032139;28;20038;-74
2023/09/08 01:33:42;;;;;;;0.50;0.50;;;;;;;;;;1033456;28;20549;-75
2023/09/08 01:34:13;;;;;;;1.35;0.52;;;;;;;;;;1034606;28;20367;-75
2023/09/08 01:34:43;;;;;;;0.10;0.10;;;;;;;;;;1038404;28;20033;-75
2023/09/08 01:35:14;;;;;;;1.42;0.52;;;;;;;;;;1034328;28;20539;-75
2023/09/08 01:35:45;;;;;;;5.50;1.73;;;;;;;;;;1034103;28;20241;-74
2023/09/08 01:36:16;;;;;;;1.85;1.42;;;;;;;;;;1034786;28;20128;-74
2023/09/08 01:36:47;;;;;;;0.75;0.70;;;;;;;;;;1034815;28;20576;-74
2023/09/08 01:37:17;;;;;;;1.85;1.25;;;;;;;;;;1037694;28;20116;-74
2023/09/08 01:37:48;;;;;;;0.15;0.15;;;;;;;;;;1039726;28;20024;-75
2023/09/08 01:38:21;;;;;;;0.40;0.40;;;;;;;;;;1037792;28;20026;-74
2023/09/08 01:38:51;;;;;;;0.43;0.43;;;;;;;;;;1039194;28;20099;-74
2023/09/08 01:39:22;;;;;;;1.35;0.80;;;;;;;;;;1038796;28;20600;-74
2023/09/08 01:39:52;;;;;;;0.50;0.50;;;;;;;;;;1039937;28;20033;-74
2023/09/08 01:40:26;;;;;;;1.02;0.93;;;;;;;;;;1034947;28;20152;-74
2023/09/08 01:40:57;;;;;;;5.97;1.48;;;;;;;;;;1033923;28;20022;-73
2023/09/08 01:41:28;;;;;;;1.25;1.15;;;;;;;;;;1035124;28;20022;-74
2023/09/08 01:41:59;;;;;;;5.97;1.55;;;;;;;;;;1036027;28;20038;-75
2023/09/08 01:42:29;;;;;;;1.08;1.08;;;;;;;;;;1041501;28;20075;-74
2023/09/08 01:43:00;;;;;;;1.80;0.90;;;;;;;;;;1040153;28;20399;-74
2023/09/08 01:43:31;;;;;;;2.45;1.17;;;;;;;;;;1034493;28;20042;-74
2023/09/08 01:44:07;;;;;;;2.35;1.45;;;;;;;;;;1027868;28;20554;-74
2023/09/08 01:44:38;;;;;;;0.82;0.77;;;;;;;;;;1028038;28;20034;-74
2023/09/08 01:45:08;;;;;;;2.33;1.35;;;;;;;;;;1029762;28;20491;-75
2023/09/08 01:45:39;;;;;;;33.03;1.98;;;;;;;;;;1033426;28;20395;-74
2023/09/08 01:46:09;;;;;;;3.38;0.85;;;;;;;;;;1038161;28;20025;-74
2023/09/08 01:46:40;;;;;;;1.58;1.48;;;;;;;;;;1039469;28;20029;-74
2023/09/08 01:47:11;;;;;;;0.28;0.28;;;;;;;;;;1039510;28;20033;-75
2023/09/08 01:47:41;;;;;;;3.63;2.45;;;;;;;;;;1040246;28;20056;-74
2023/09/08 01:48:12;;;;;;;0.20;0.20;;;;;;;;;;1041135;28;20505;-74
2023/09/08 01:48:42;;;;;;;1.17;1.08;;;;;;;;;;1041942;28;20075;-74
2023/09/08 01:49:13;;;;;;;1.77;1.13;;;;;;;;;;1041387;28;20020;-74
2023/09/08 01:49:43;;;;;;;3.97;3.53;;;;;;;;;;1040762;28;20021;-74
2023/09/08 01:50:16;;;;;;;4.93;0.93;;;;;;;;;;1039804;28;20510;-74
2023/09/08 01:50:47;;;;;;;1.02;0.77;;;;;;;;;;1036222;28;20564;-75
2023/09/08 01:51:19;;;;;;;0.63;0.63;;;;;;;;;;1032292;28;20065;-75
2023/09/08 01:51:53;;;;;;;7.53;2.45;;;;;;;;;;1032894;28;20033;-74
2023/09/08 01:52:30;;;;;;;0.75;0.70;;;;;;;;;;1031936;28;20025;-74
2023/09/08 01:53:04;;;;;;;3.30;1.45;;;;;;;;;;1034978;28;20041;-74
2023/09/08 01:53:35;;;;;;;5.47;1.38;;;;;;;;;;1033968;28;20033;-75
2023/09/08 01:54:05;;;;;;;6.43;2.55;;;;;;;;;;1036093;28;20367;-74
2023/09/08 01:54:36;;;;;;;0.65;0.65;;;;;;;;;;1039805;28;20097;-75
2023/09/08 01:55:07;;;;;;;2.15;1.83;;;;;;;;;;1035773;28;20429;-75
2023/09/08 01:55:38;;;;;;;1.35;1.25;;;;;;;;;;1037017;28;20117;-76
2023/09/08 01:56:11;;;;;;;0.77;0.77;;;;;;;;;;1030727;28;20026;-75
2023/09/08 01:56:41;;;;;;;3.13;2.83;;;;;;;;;;1030122;28;20037;-74
2023/09/08 01:57:12;;;;;;;1.73;1.63;;;;;;;;;;1031023;28;20033;-74
2023/09/08 01:57:43;;;;;;;1.50;1.02;;;;;;;;;;1036237;28;20087;-74
2023/09/08 01:58:14;;;;;;;4.28;1.77;;;;;;;;;;1041016;28;20127;-75
2023/09/08 01:58:45;;;;;;;0.25;0.25;;;;;;;;;;1031735;28;20030;-74
2023/09/08 01:59:16;;;;;;;0.55;0.47;;;;;;;;;;1033099;28;20056;-75
2023/09/08 01:59:48;;;;;;;0.15;0.15;;;;;;;;;;1036215;28;20026;-74
2023/09/08 02:00:20;;;;;;;3.88;1.02;;;;;;;;;;1038638;28;20021;-73
2023/09/08 02:00:54;;;;;;;0.45;0.45;;;;;;;;;;1039890;28;20025;-76
2023/09/08 02:01:24;;;;;;;0.20;0.20;;;;;;;;;;1033544;28;20521;-74
2023/09/08 02:01:55;;;;;;;12.90;1.65;;;;;;;;;;1035306;28;20033;-74
2023/09/08 02:02:26;;;;;;;1.13;1.05;;;;;;;;;;1026639;28;21143;-74
2023/09/08 02:02:57;;;;;;;3.63;1.20;;;;;;;;;;1031640;28;20018;-74
2023/09/08 02:03:28;;;;;;;5.63;1.17;;;;;;;;;;1035184;28;20046;-73
2023/09/08 02:03:58;;;;;;;0.93;0.93;;;;;;;;;;1035944;28;20457;-74
2023/09/08 02:04:29;;;;;;;0.40;0.40;;;;;;;;;;1039094;28;20408;-74
2023/09/08 02:04:59;;;;;;;2.72;2.08;;;;;;;;;;1038522;28;20044;-74
2023/09/08 02:05:30;;;;;;;4.70;3.65;;;;;;;;;;1039485;28;20432;-74
2023/09/08 02:06:00;;;;;;;2.65;1.10;;;;;;;;;;1039501;28;20025;-73
2023/09/08 02:06:31;;;;;;;0.90;0.38;;;;;;;;;;1039480;28;20033;-74
2023/09/08 02:07:03;;;;;;;0.20;0.20;;;;;;;;;;1035727;28;20065;-73
2023/09/08 02:07:34;;;;;;;0.28;0.25;;;;;;;;;;1033228;28;20028;-73
2023/09/08 02:08:05;;;;;;;5.78;1.05;;;;;;;;;;1036336;28;20452;-73
2023/09/08 02:08:35;;;;;;;0.55;0.55;;;;;;;;;;1035419;28;20513;-74
2023/09/08 02:09:08;;;;;;;4.43;1.20;;;;;;;;;;1039684;28;20051;-73
2023/09/08 02:09:39;;;;;;;1.13;1.05;;;;;;;;;;1040119;28;20048;-73
2023/09/08 02:10:10;;;;;;;13.35;2.85;;;;;;;;;;1039182;28;20032;-73
2023/09/08 02:10:41;;;;;;;0.80;0.55;;;;;;;;;;1039818;28;20036;-73
2023/09/08 02:11:11;;;;;;;0.10;0.10;;;;;;;;;;1039380;28;20025;-74
2023/09/08 02:11:42;;;;;;;0.30;0.30;;;;;;;;;;1038240;28;20033;-73
2023/09/08 02:12:12;;;;;;;2.30;1.38;;;;;;;;;;1038592;28;20032;-74
2023/09/08 02:12:43;;;;;;;0.43;0.40;;;;;;;;;;1039334;28;20679;-73
2023/09/08 02:13:13;;;;;;;0.50;0.50;;;;;;;;;;1031879;28;20021;-74
2023/09/08 02:13:44;;;;;;;6.43;3.95;;;;;;;;;;1027345;28;20039;-74
2023/09/08 02:14:17;;;;;;;2.65;1.33;;;;;;;;;;1025320;28;20033;-74
2023/09/08 02:14:48;;;;;;;1.00;0.95;;;;;;;;;;1025306;28;20132;-74
2023/09/08 02:15:19;;;;;;;4.55;3.30;;;;;;;;;;1028491;28;20033;-74
2023/09/08 02:15:54;;;;;;;0.57;0.57;;;;;;;;;;1034935;28;20025;-74
2023/09/08 02:16:28;;;;;;;2.83;1.25;;;;;;;;;;1031878;28;20151;-73
2023/09/08 02:16:59;;;;;;;1.40;1.08;;;;;;;;;;1035257;28;20471;-73
2023/09/08 02:17:30;;;;;;;0.98;0.98;;;;;;;;;;1031890;28;20084;-73
2023/09/08 02:18:00;;;;;;;1.67;1.20;;;;;;;;;;1029538;28;20033;-74
2023/09/08 02:18:31;;;;;;;1.48;1.30;;;;;;;;;;1031752;28;20032;-73
2023/09/08 02:19:04;;;;;;;1.02;0.73;;;;;;;;;;1027036;28;20026;-74
2023/09/08 02:19:34;;;;;;;3.50;2.78;;;;;;;;;;1027046;28;20033;-73
2023/09/08 02:20:05;;;;;;;7.03;1.42;;;;;;;;;;1029325;28;20424;-74
2023/09/08 02:20:36;;;;;;;30.98;7.55;;;;;;;;;;1027555;28;20034;-74
2023/09/08 02:21:06;;;;;;;1.95;1.75;;;;;;;;;;1028671;28;20107;-73
2023/09/08 02:21:37;;;;;;;2.13;1.52;;;;;;;;;;1027773;28;20888;-73
2023/09/08 02:22:08;;;;;;;0.73;0.73;;;;;;;;;;1029535;28;20368;-74
2023/09/08 02:22:39;;;;;;;5.18;1.77;;;;;;;;;;1028230;28;20033;-74
2023/09/08 02:23:13;;;;;;;0.30;0.30;;;;;;;;;;1027835;28;20119;-74
2023/09/08 02:23:44;;;;;;;11.10;1.38;;;;;;;;;;1022990;28;20117;-74
2023/09/08 02:24:14;;;;;;;0.80;0.80;;;;;;;;;;1019820;28;20479;-73
2023/09/08 02:24:46;;;;;;;1.10;1.00;;;;;;;;;;1024102;28;20444;-73
2023/09/08 02:25:20;;;;;;;0.52;0.52;;;;;;;;;;1029092;28;20037;-74
2023/09/08 02:25:51;;;;;;;0.90;0.90;;;;;;;;;;1027615;28;20610;-74
2023/09/08 02:26:21;;;;;;;0.40;0.40;;;;;;;;;;1026981;28;20357;-74
2023/09/08 02:26:52;;;;;;;1.55;0.95;;;;;;;;;;1032253;28;20405;-74
2023/09/08 02:27:25;;;;;;;0.32;0.32;;;;;;;;;;1034383;28;20028;-73
2023/09/08 02:27:55;;;;;;;4.55;2.30;;;;;;;;;;1035304;28;20017;-73
2023/09/08 02:28:25;;;;;;;2.13;2.00;;;;;;;;;;1015948;28;20056;-72
2023/09/08 02:28:56;;;;;;;0.70;0.70;;;;;;;;;;1010787;28;20033;-74
2023/09/08 02:29:27;;;;;;;6.97;2.88;;;;;;;;;;1006844;28;20477;-73
2023/09/08 02:29:57;;;;;;;1.63;0.63;;;;;;;;;;1007451;28;20440;-73
2023/09/08 02:30:28;;;;;;;0.40;0.40;;;;;;;;;;1004490;28;20383;-73
2023/09/08 02:30:59;;;;;;;2.38;1.15;;;;;;;;;;1005032;28;20452;-75
2023/09/08 02:31:30;;;;;;;2.10;2.00;;;;;;;;;;1004776;28;20583;-74
2023/09/08 02:32:00;;;;;;;14.93;3.40;;;;;;;;;;1005561;28;20212;-74
2023/09/08 02:32:32;;;;;;;0.20;0.20;;;;;;;;;;1008558;28;20385;-73
2023/09/08 02:33:03;;;;;;;0.63;0.60;;;;;;;;;;999472;28;20622;-74
2023/09/08 02:33:34;;;;;;;8.57;1.58;;;;;;;;;;1000944;28;20033;-73
2023/09/08 02:34:04;;;;;;;0.70;0.70;;;;;;;;;;996669;28;20050;-72
2023/09/08 02:34:36;;;;;;;2.63;2.25;;;;;;;;;;996833;28;20034;-73
2023/09/08 02:35:07;;;;;;;0.93;0.93;;;;;;;;;;1000817;28;20025;-72
2023/09/08 02:35:40;;;;;;;11.63;2.70;;;;;;;;;;1001393;28;20139;-73
2023/09/08 02:36:11;;;;;;;1.50;1.40;;;;;;;;;;1001896;28;20032;-73
2023/09/08 02:36:41;;;;;;;0.60;0.60;;;;;;;;;;1002044;28;20041;-72
2023/09/08 02:37:11;;;;;;;2.83;1.05;;;;;;;;;;1002677;28;20195;-72
2023/09/08 02:37:42;;;;;;;4.28;1.65;;;;;;;;;;1002077;28;20708;-74
2023/09/08 02:38:12;;;;;;;1.00;1.00;;;;;;;;;;1004406;28;20117;-73
2023/09/08 02:38:43;;;;;;;2.95;2.75;;;;;;;;;;1009272;28;20513;-73
2023/09/08 02:39:14;;;;;;;2.95;2.72;;;;;;;;;;1002949;28;20037;-72
2023/09/08 02:39:44;;;;;;;2.47;2.17;;;;;;;;;;1006162;28;20442;-73
2023/09/08 02:40:15;;;;;;;0.98;0.95;;;;;;;;;;1002187;28;20037;-73
2023/09/08 02:40:45;;;;;;;1.52;1.42;;;;;;;;;;1001418;28;20506;-71
2023/09/08 02:41:16;;;;;;;6.65;2.30;;;;;;;;;;998867;28;20025;-72
2023/09/08 02:41:46;;;;;;;5.57;2.83;;;;;;;;;;1003918;28;20455;-72
2023/09/08 02:42:17;;;;;;;2.17;1.02;;;;;;;;;;1006081;28;20032;-72
2023/09/08 02:42:47;;;;;;;1.45;1.13;;;;;;;;;;1008133;28;20021;-72
2023/09/08 02:43:17;;;;;;;1.23;1.13;;;;;;;;;;1003394;28;20315;-73
2023/09/08 02:43:48;;;;;;;0.77;0.77;;;;;;;;;;1001516;28;20100;-73
2023/09/08 02:44:19;;;;;;;4.38;3.28;;;;;;;;;;1001035;28;20593;-73
2023/09/08 02:44:49;;;;;;;0.20;0.20;;;;;;;;;;999951;28;20746;-72
2023/09/08 02:45:20;;;;;;;1.05;0.98;;;;;;;;;;1002791;28;21127;-73
2023/09/08 02:45:50;;;;;;;2.42;1.60;;;;;;;;;;1005865;28;20559;-73
2023/09/08 02:46:21;;;;;;;10.20;5.53;;;;;;;;;;1004768;28;20029;-72
2023/09/08 02:46:51;;;;;;;0.15;0.15;;;;;;;;;;1003451;28;20093;-73
2023/09/08 02:47:23;;;;;;;4.18;1.92;;;;;;;;;;1001796;28;20030;-72
2023/09/08 02:47:54;;;;;;;0.65;0.50;;;;;;;;;;997641;28;20083;-73
2023/09/08 02:48:25;;;;;;;0.73;0.70;;;;;;;;;;1000768;28;20025;-73
2023/09/08 02:48:55;;;;;;;0.95;0.95;;;;;;;;;;1001079;28;20704;-73
2023/09/08 02:49:26;;;;;;;11.40;3.20;;;;;;;;;;1006482;28;20072;-71
2023/09/08 02:49:58;;;;;;;6.60;1.75;;;;;;;;;;1005134;28;21050;-73
2023/09/08 02:50:28;;;;;;;9.23;2.35;;;;;;;;;;1004791;28;20026;-71
2023/09/08 02:50:59;;;;;;;1.58;1.48;;;;;;;;;;1003951;28;20029;-73
2023/09/08 02:51:29;;;;;;;4.30;2.28;;;;;;;;;;1006123;28;20075;-73
2023/09/08 02:52:00;;;;;;;1.70;1.60;;;;;;;;;;1008336;28;21135;-73
2023/09/08 02:52:30;;;;;;;1.88;1.77;;;;;;;;;;1004458;28;20464;-71
2023/09/08 02:53:02;;;;;;;9.18;2.65;;;;;;;;;;1001576;28;20057;-75
2023/09/08 02:53:32;;;;;;;0.57;0.57;;;;;;;;;;997275;28;20801;-73
2023/09/08 02:54:03;;;;;;;2.72;1.98;;;;;;;;;;997414;28;20431;-73
2023/09/08 02:54:33;;;;;;;0.55;0.55;;;;;;;;;;1000624;28;20519;-73
2023/09/08 02:55:04;;;;;;;5.97;1.95;;;;;;;;;;1000491;28;20112;-71
2023/09/08 02:55:55;;;;;;;6.75;0.73;;;;;;;;;;997079;28;20566;-70
2023/09/08 02:56:28;;;;;;;1.85;1.73;;;;;;;;;;997856;28;20119;-72
2023/09/08 02:56:59;;;;;;;3.40;2.20;;;;;;;;;;1002210;28;20645;-71
2023/09/08 02:57:29;;;;;;;0.77;0.77;;;;;;;;;;1006788;28;21096;-72
2023/09/08 02:58:00;;;;;;;1.27;1.17;;;;;;;;;;1004496;28;20731;-75
2023/09/08 02:58:33;;;;;;;1.65;0.57;;;;;;;;;;1001760;28;20331;-73
2023/09/08 02:59:04;;;;;;;1.08;1.00;;;;;;;;;;1035915;28;20126;-72
2023/09/08 02:59:35;;;;;;;1.45;0.88;;;;;;;;;;1036851;28;20674;-72
2023/09/08 03:00:07;;;;;;;2.40;1.85;;;;;;;;;;1032897;28;20073;-69
2023/09/08 03:00:38;;;;;;;1.58;1.48;;;;;;;;;;1029235;28;20033;-73
2023/09/08 03:01:10;;;;;;;6.95;1.88;;;;;;;;;;1021676;28;20038;-71
2023/09/08 03:01:41;;;;;;;1.50;0.90;;;;;;;;;;1001246;28;20026;-70
2023/09/08 03:02:12;;;;;;;4.85;0.75;;;;;;;;;;1017971;28;20026;-72
2023/09/08 03:02:42;;;;;;;0.95;0.90;;;;;;;;;;1026789;28;20565;-72
2023/09/08 03:03:13;;;;;;;8.23;3.30;;;;;;;;;;1027192;28;20112;-72
2023/09/08 03:03:44;;;;;;;0.57;0.57;;;;;;;;;;1023777;28;20037;-74
2023/09/08 03:04:14;;;;;;;7.30;2.78;;;;;;;;;;1026421;28;20034;-71
2023/09/08 03:04:45;;;;;;;5.00;2.50;;;;;;;;;;1018956;28;20060;-75
2023/09/08 03:05:15;;;;;;;0.65;0.65;;;;;;;;;;1020513;28;20158;-73
2023/09/08 03:05:46;;;;;;;1.60;1.08;;;;;;;;;;1027392;28;20057;-72
2023/09/08 03:06:19;;;;;;;2.40;2.20;;;;;;;;;;1036453;28;20504;-73
2023/09/08 03:06:49;;;;;;;2.25;1.63;;;;;;;;;;1039422;28;20024;-72
2023/09/08 03:07:20;;;;;;;4.03;1.13;;;;;;;;;;1037446;28;20032;-72